Wetterdaten: Mittwoch, 19.05.2010
Datum Zeit Temp. A. Feuchte A. Luftdruck Regen Wind Richtung Richtung Sonnenschein UV Solar Windben
19.05.2010 00:00 9,3 C 69 % 1024,7 hPa 0,0 mm 1,6 km/h (1 Bft) NW 315 0 min 0 UV-I 0 W/m 8,0 km/h (2 Bft)
19.05.2010 00:10 9,2 C 69 % 1024,9 hPa 0,0 mm 3,2 km/h (1 Bft) W-NW 292 0 min 0 UV-I 0 W/m 14,5 km/h (3 Bft)
19.05.2010 00:20 9,2 C 69 % 1024,8 hPa 0,0 mm 3,2 km/h (1 Bft) NW 315 0 min 0 UV-I 0 W/m 16,1 km/h (3 Bft)
19.05.2010 00:30 9,1 C 70 % 1024,6 hPa 0,0 mm 3,2 km/h (1 Bft) W-NW 292 0 min 0 UV-I 0 W/m 11,3 km/h (2 Bft)
19.05.2010 00:40 9,0 C 70 % 1024,7 hPa 0,0 mm 3,2 km/h (1 Bft) NW 315 0 min 0 UV-I 0 W/m 12,9 km/h (3 Bft)
19.05.2010 00:50 8,9 C 70 % 1024,6 hPa 0,0 mm 3,2 km/h (1 Bft) NW 315 0 min 0 UV-I 0 W/m 11,3 km/h (2 Bft)
19.05.2010 01:00 8,8 C 71 % 1024,6 hPa 0,0 mm 3,2 km/h (1 Bft) W-NW 292 0 min 0 UV-I 0 W/m 16,1 km/h (3 Bft)
19.05.2010 01:10 8,7 C 71 % 1024,5 hPa 0,0 mm 3,2 km/h (1 Bft) NW 315 0 min 0 UV-I 0 W/m 11,3 km/h (2 Bft)
19.05.2010 01:20 8,7 C 72 % 1024,4 hPa 0,0 mm 1,6 km/h (1 Bft) W-NW 292 0 min 0 UV-I 0 W/m 8,0 km/h (2 Bft)
19.05.2010 01:30 8,6 C 73 % 1024,4 hPa 0,0 mm 3,2 km/h (1 Bft) W-NW 292 0 min 0 UV-I 0 W/m 16,1 km/h (3 Bft)
19.05.2010 01:40 8,6 C 73 % 1024,4 hPa 0,0 mm 3,2 km/h (1 Bft) NW 315 0 min 0 UV-I 0 W/m 11,3 km/h (2 Bft)
19.05.2010 01:50 8,4 C 74 % 1024,4 hPa 0,0 mm 1,6 km/h (1 Bft) W-NW 292 0 min 0 UV-I 0 W/m 6,4 km/h (2 Bft)
19.05.2010 02:00 8,3 C 74 % 1024,5 hPa 0,0 mm 3,2 km/h (1 Bft) W-NW 292 0 min 0 UV-I 0 W/m 8,0 km/h (2 Bft)
19.05.2010 02:10 8,3 C 75 % 1024,4 hPa 0,0 mm 3,2 km/h (1 Bft) W 270 0 min 0 UV-I 0 W/m 9,7 km/h (2 Bft)
19.05.2010 02:20 8,3 C 75 % 1024,4 hPa 0,0 mm 3,2 km/h (1 Bft) W 270 0 min 0 UV-I 0 W/m 14,5 km/h (3 Bft)
19.05.2010 02:30 8,2 C 76 % 1024,4 hPa 0,0 mm 1,6 km/h (1 Bft) W-NW 292 0 min 0 UV-I 0 W/m 11,3 km/h (2 Bft)
19.05.2010 02:40 8,2 C 77 % 1024,3 hPa 0,0 mm 1,6 km/h (1 Bft) W-NW 292 0 min 0 UV-I 0 W/m 8,0 km/h (2 Bft)
19.05.2010 02:50 8,1 C 77 % 1024,2 hPa 0,0 mm 3,2 km/h (1 Bft) W 270 0 min 0 UV-I 0 W/m 11,3 km/h (2 Bft)
19.05.2010 03:00 8,1 C 77 % 1024,3 hPa 0,0 mm 3,2 km/h (1 Bft) W 270 0 min 0 UV-I 0 W/m 14,5 km/h (3 Bft)
19.05.2010 03:10 8,1 C 77 % 1024,3 hPa 0,0 mm 3,2 km/h (1 Bft) W 270 0 min 0 UV-I 0 W/m 17,7 km/h (3 Bft)
19.05.2010 03:20 8,1 C 78 % 1024,0 hPa 0,0 mm 4,8 km/h (1 Bft) W 270 0 min 0 UV-I 0 W/m 14,5 km/h (3 Bft)
19.05.2010 03:30 8,0 C 78 % 1023,9 hPa 0,0 mm 6,4 km/h (2 Bft) W 270 0 min 0 UV-I 0 W/m 17,7 km/h (3 Bft)
19.05.2010 03:40 8,0 C 79 % 1024,1 hPa 0,0 mm 4,8 km/h (1 Bft) W 270 0 min 0 UV-I 0 W/m 11,3 km/h (2 Bft)
19.05.2010 03:50 7,9 C 79 % 1024,0 hPa 0,0 mm 4,8 km/h (1 Bft) W 270 0 min 0 UV-I 0 W/m 12,9 km/h (3 Bft)
19.05.2010 04:00 7,9 C 79 % 1024,2 hPa 0,0 mm 3,2 km/h (1 Bft) W 270 0 min 0 UV-I 0 W/m 12,9 km/h (3 Bft)
19.05.2010 04:10 7,9 C 80 % 1024,1 hPa 0,0 mm 4,8 km/h (1 Bft) W-NW 292 0 min 0 UV-I 0 W/m 16,1 km/h (3 Bft)
19.05.2010 04:20 7,9 C 80 % 1024,0 hPa 0,0 mm 4,8 km/h (1 Bft) W 270 0 min 0 UV-I 0 W/m 16,1 km/h (3 Bft)
19.05.2010 04:30 7,8 C 80 % 1024,0 hPa 0,0 mm 4,8 km/h (1 Bft) W 270 0 min 0 UV-I 0 W/m 11,3 km/h (2 Bft)
19.05.2010 04:40 7,8 C 81 % 1024,0 hPa 0,0 mm 6,4 km/h (2 Bft) W 270 0 min 0 UV-I 0 W/m 16,1 km/h (3 Bft)
19.05.2010 04:50 7,8 C 81 % 1024,0 hPa 0,0 mm 4,8 km/h (1 Bft) W 270 0 min 0 UV-I 0 W/m 17,7 km/h (3 Bft)
19.05.2010 05:00 7,8 C 81 % 1024,0 hPa 0,0 mm 4,8 km/h (1 Bft) W-SW 247 0 min 0 UV-I 0 W/m 16,1 km/h (3 Bft)
19.05.2010 05:10 7,8 C 82 % 1023,9 hPa 0,0 mm 4,8 km/h (1 Bft) W 270 0 min 0 UV-I 0 W/m 14,5 km/h (3 Bft)
19.05.2010 05:20 7,8 C 82 % 1023,8 hPa 0,0 mm 4,8 km/h (1 Bft) W 270 0 min 0 UV-I 0 W/m 16,1 km/h (3 Bft)
19.05.2010 05:30 7,8 C 82 % 1023,8 hPa 0,0 mm 3,2 km/h (1 Bft) W 270 0 min 0 UV-I 0 W/m 16,1 km/h (3 Bft)
19.05.2010 05:40 7,8 C 83 % 1023,7 hPa 0,0 mm 3,2 km/h (1 Bft) W 270 0 min 0 UV-I 0 W/m 14,5 km/h (3 Bft)
19.05.2010 05:50 7,8 C 83 % 1023,7 hPa 0,0 mm 4,8 km/h (1 Bft) W 270 0 min 0 UV-I 0 W/m 12,9 km/h (3 Bft)
19.05.2010 06:00 7,7 C 83 % 1023,6 hPa 0,0 mm 3,2 km/h (1 Bft) W 270 0 min 0 UV-I 0 W/m 11,3 km/h (2 Bft)
19.05.2010 06:10 7,7 C 83 % 1023,6 hPa 0,0 mm 4,8 km/h (1 Bft) W-SW 247 0 min 0 UV-I 0 W/m 19,3 km/h (3 Bft)
19.05.2010 06:20 7,7 C 83 % 1023,8 hPa 0,0 mm 4,8 km/h (1 Bft) W 270 0 min 0 UV-I 0 W/m 16,1 km/h (3 Bft)
19.05.2010 06:30 7,7 C 84 % 1023,6 hPa 0,0 mm 4,8 km/h (1 Bft) W 270 0 min 0 UV-I 9 W/m 12,9 km/h (3 Bft)
19.05.2010 06:40 7,8 C 84 % 1023,6 hPa 0,0 mm 6,4 km/h (2 Bft) W 270 0 min 0 UV-I 9 W/m 14,5 km/h (3 Bft)
19.05.2010 06:50 7,8 C 84 % 1023,7 hPa 0,0 mm 4,8 km/h (1 Bft) W 270 0 min 0 UV-I 11 W/m 11,3 km/h (2 Bft)
19.05.2010 07:00 7,8 C 84 % 1023,7 hPa 0,0 mm 6,4 km/h (2 Bft) W 270 0 min 0 UV-I 12 W/m 17,7 km/h (3 Bft)
19.05.2010 07:10 7,8 C 84 % 1023,8 hPa 0,0 mm 4,8 km/h (1 Bft) W-SW 247 0 min 0 UV-I 18 W/m 16,1 km/h (3 Bft)
19.05.2010 07:20 7,8 C 84 % 1023,8 hPa 0,0 mm 6,4 km/h (2 Bft) W 270 0 min 0 UV-I 18 W/m 17,7 km/h (3 Bft)
19.05.2010 07:30 7,8 C 84 % 1023,8 hPa 0,0 mm 6,4 km/h (2 Bft) W 270 0 min 0 UV-I 19 W/m 14,5 km/h (3 Bft)
19.05.2010 07:40 7,8 C 84 % 1023,8 hPa 0,0 mm 4,8 km/h (1 Bft) W 270 0 min 0 UV-I 28 W/m 16,1 km/h (3 Bft)
19.05.2010 07:50 7,9 C 84 % 1024,0 hPa 0,0 mm 4,8 km/h (1 Bft) W 270 0 min 0 UV-I 37 W/m 12,9 km/h (3 Bft)
19.05.2010 08:00 7,9 C 85 % 1024,0 hPa 0,0 mm 6,0 km/h (2 Bft) W 263 0 min 0 UV-I 37 W/m 11,3 km/h (2 Bft)
19.05.2010 08:10 7,9 C 84 % 1024,0 hPa 0,0 mm 3,2 km/h (1 Bft) W-NW 292 0 min 0 UV-I 37 W/m 11,3 km/h (2 Bft)
19.05.2010 08:20 8,0 C 84 % 1024,2 hPa 0,0 mm 4,8 km/h (1 Bft) W 270 0 min 0 UV-I 39 W/m 16,1 km/h (3 Bft)
19.05.2010 08:30 8,1 C 84 % 1024,2 hPa 0,0 mm 4,8 km/h (1 Bft) W 270 0 min 0 UV-I 49 W/m 11,3 km/h (2 Bft)
19.05.2010 08:40 8,1 C 84 % 1024,3 hPa 0,0 mm 3,2 km/h (1 Bft) W 270 0 min 0 UV-I 51 W/m 8,0 km/h (2 Bft)
19.05.2010 08:50 8,2 C 85 % 1024,4 hPa 0,0 mm 3,2 km/h (1 Bft) W 270 0 min 0 UV-I 49 W/m 9,7 km/h (2 Bft)
19.05.2010 09:00 8,2 C 85 % 1024,3 hPa 0,0 mm 3,2 km/h (1 Bft) W-NW 292 0 min 0 UV-I 54 W/m 9,7 km/h (2 Bft)
19.05.2010 09:10 8,2 C 84 % 1024,2 hPa 0,0 mm 6,4 km/h (2 Bft) W 270 0 min 1 UV-I 69 W/m 16,1 km/h (3 Bft)
19.05.2010 09:20 8,3 C 85 % 1024,3 hPa 0,0 mm 3,2 km/h (1 Bft) W 270 0 min 1 UV-I 72 W/m 9,7 km/h (2 Bft)
19.05.2010 09:30 8,3 C 84 % 1024,3 hPa 0,0 mm 3,2 km/h (1 Bft) W 270 0 min 1 UV-I 74 W/m 11,3 km/h (2 Bft)
19.05.2010 09:40 8,4 C 84 % 1024,2 hPa 0,0 mm 3,2 km/h (1 Bft) W 270 0 min 1 UV-I 90 W/m 9,7 km/h (2 Bft)
19.05.2010 09:50 8,5 C 84 % 1024,2 hPa 0,0 mm 4,8 km/h (1 Bft) W 270 0 min 1 UV-I 100 W/m 14,5 km/h (3 Bft)
19.05.2010 10:00 8,6 C 84 % 1024,2 hPa 0,0 mm 4,8 km/h (1 Bft) W 270 0 min 1 UV-I 93 W/m 12,9 km/h (3 Bft)
19.05.2010 10:10 8,7 C 84 % 1024,2 hPa 0,0 mm 4,8 km/h (1 Bft) W 270 0 min 1 UV-I 83 W/m 16,1 km/h (3 Bft)
19.05.2010 10:20 8,7 C 84 % 1024,3 hPa 0,0 mm 4,8 km/h (1 Bft) W 270 0 min 1 UV-I 72 W/m 17,7 km/h (3 Bft)
19.05.2010 10:30 8,7 C 84 % 1024,3 hPa 0,0 mm 4,8 km/h (1 Bft) W 270 0 min 1 UV-I 76 W/m 9,7 km/h (2 Bft)
19.05.2010 10:40 8,8 C 84 % 1024,3 hPa 0,3 mm 4,8 km/h (1 Bft) W-SW 247 0 min 1 UV-I 77 W/m 16,1 km/h (3 Bft)
19.05.2010 10:50 8,8 C 85 % 1024,3 hPa 0,0 mm 6,4 km/h (2 Bft) W 270 0 min 1 UV-I 90 W/m 17,7 km/h (3 Bft)
19.05.2010 11:00 8,8 C 85 % 1024,3 hPa 0,0 mm 6,4 km/h (2 Bft) W-SW 247 0 min 1 UV-I 93 W/m 16,1 km/h (3 Bft)
19.05.2010 11:10 8,8 C 86 % 1024,2 hPa 0,0 mm 6,4 km/h (2 Bft) W 270 0 min 1 UV-I 151 W/m 17,7 km/h (3 Bft)
19.05.2010 11:20 8,9 C 86 % 1024,3 hPa 0,0 mm 6,4 km/h (2 Bft) W 270 0 min 1 UV-I 130 W/m 16,1 km/h (3 Bft)
19.05.2010 11:30 8,9 C 87 % 1024,3 hPa 0,0 mm 4,8 km/h (1 Bft) W 270 0 min 2 UV-I 169 W/m 14,5 km/h (3 Bft)
19.05.2010 11:40 9,1 C 87 % 1024,4 hPa 0,3 mm 4,8 km/h (1 Bft) W 270 0 min 2 UV-I 172 W/m 14,5 km/h (3 Bft)
19.05.2010 11:50 9,2 C 87 % 1024,4 hPa 0,0 mm 4,8 km/h (1 Bft) W 270 0 min 2 UV-I 181 W/m 16,1 km/h (3 Bft)
19.05.2010 12:00 9,4 C 87 % 1024,3 hPa 0,0 mm 6,4 km/h (2 Bft) W 270 0 min 2 UV-I 239 W/m 17,7 km/h (3 Bft)
19.05.2010 12:10 9,7 C 87 % 1024,3 hPa 0,3 mm 4,8 km/h (1 Bft) W 270 0 min 2 UV-I 243 W/m 16,1 km/h (3 Bft)
19.05.2010 12:20 9,9 C 86 % 1024,4 hPa 0,0 mm 3,2 km/h (1 Bft) W 270 0 min 2 UV-I 174 W/m 9,7 km/h (2 Bft)
19.05.2010 12:30 9,8 C 86 % 1024,4 hPa 0,3 mm 4,8 km/h (1 Bft) W 270 0 min 1 UV-I 137 W/m 14,5 km/h (3 Bft)
19.05.2010 12:40 9,8 C 86 % 1024,3 hPa 0,3 mm 4,8 km/h (1 Bft) W 270 0 min 2 UV-I 160 W/m 11,3 km/h (2 Bft)
19.05.2010 12:50 9,9 C 86 % 1024,1 hPa 0,0 mm 4,8 km/h (1 Bft) W-SW 247 0 min 2 UV-I 148 W/m 16,1 km/h (3 Bft)
19.05.2010 13:00 9,9 C 86 % 1024,2 hPa 0,0 mm 3,2 km/h (1 Bft) W 270 0 min 2 UV-I 146 W/m 9,7 km/h (2 Bft)
19.05.2010 13:10 10,0 C 87 % 1024,2 hPa 0,0 mm 1,6 km/h (1 Bft) W 270 0 min 1 UV-I 116 W/m 11,3 km/h (2 Bft)
19.05.2010 13:20 10,1 C 87 % 1024,2 hPa 0,3 mm 3,2 km/h (1 Bft) W 270 0 min 1 UV-I 111 W/m 9,7 km/h (2 Bft)
19.05.2010 13:30 10,2 C 87 % 1024,0 hPa 0,0 mm 3,2 km/h (1 Bft) W 270 0 min 1 UV-I 104 W/m 9,7 km/h (2 Bft)
19.05.2010 13:40 10,3 C 87 % 1024,0 hPa 0,0 mm 3,2 km/h (1 Bft) W 270 0 min 2 UV-I 141 W/m 11,3 km/h (2 Bft)
19.05.2010 13:50 10,5 C 87 % 1023,9 hPa 0,0 mm 3,2 km/h (1 Bft) W 270 0 min 2 UV-I 165 W/m 11,3 km/h (2 Bft)
19.05.2010 14:00 10,7 C 86 % 1023,9 hPa 0,0 mm 4,8 km/h (1 Bft) W 270 0 min 2 UV-I 153 W/m 9,7 km/h (2 Bft)
19.05.2010 14:10 10,8 C 87 % 1024,0 hPa 0,0 mm 1,6 km/h (1 Bft) NW 315 0 min 1 UV-I 127 W/m 9,7 km/h (2 Bft)
19.05.2010 14:20 11,0 C 86 % 1023,9 hPa 0,0 mm 1,6 km/h (1 Bft) W 270 0 min 1 UV-I 118 W/m 9,7 km/h (2 Bft)
19.05.2010 14:30 11,1 C 86 % 1023,9 hPa 0,0 mm 1,6 km/h (1 Bft) W 270 0 min 2 UV-I 162 W/m 8,0 km/h (2 Bft)
19.05.2010 14:40 11,3 C 84 % 1023,8 hPa 0,0 mm 3,2 km/h (1 Bft) W 270 0 min 2 UV-I 163 W/m 8,0 km/h (2 Bft)
19.05.2010 14:50 11,5 C 83 % 1023,7 hPa 0,0 mm 3,2 km/h (1 Bft) W 270 0 min 2 UV-I 190 W/m 8,0 km/h (2 Bft)
19.05.2010 15:00 11,8 C 83 % 1023,7 hPa 0,0 mm 4,8 km/h (1 Bft) W 270 0 min 2 UV-I 188 W/m 14,5 km/h (3 Bft)
19.05.2010 15:10 12,1 C 80 % 1023,7 hPa 0,0 mm 3,2 km/h (1 Bft) W 270 0 min 2 UV-I 195 W/m 9,7 km/h (2 Bft)
19.05.2010 15:20 12,3 C 79 % 1023,7 hPa 0,0 mm 3,2 km/h (1 Bft) W-NW 292 0 min 1 UV-I 155 W/m 11,3 km/h (2 Bft)
19.05.2010 15:30 12,3 C 75 % 1023,8 hPa 0,0 mm 3,2 km/h (1 Bft) W 270 0 min 1 UV-I 118 W/m 11,3 km/h (2 Bft)
19.05.2010 15:40 12,3 C 74 % 1023,8 hPa 0,0 mm 1,6 km/h (1 Bft) W 270 0 min 1 UV-I 114 W/m 8,0 km/h (2 Bft)
19.05.2010 15:50 12,4 C 74 % 1023,8 hPa 0,0 mm 1,6 km/h (1 Bft) NW 315 0 min 1 UV-I 153 W/m 6,4 km/h (2 Bft)
19.05.2010 16:00 12,6 C 73 % 1023,8 hPa 0,0 mm 1,3 km/h (1 Bft) W-NW 287 0 min 1 UV-I 143 W/m 3,2 km/h (1 Bft)
19.05.2010 16:10 12,7 C 72 % 1023,8 hPa 0,0 mm 1,6 km/h (1 Bft) W-NW 292 0 min 2 UV-I 163 W/m 8,0 km/h (2 Bft)
19.05.2010 16:20 13,0 C 70 % 1023,7 hPa 0,0 mm 1,6 km/h (1 Bft) W-NW 292 0 min 2 UV-I 237 W/m 8,0 km/h (2 Bft)
19.05.2010 16:30 13,2 C 68 % 1023,7 hPa 0,0 mm 3,2 km/h (1 Bft) W 270 0 min 1 UV-I 174 W/m 11,3 km/h (2 Bft)
19.05.2010 16:40 13,2 C 67 % 1023,6 hPa 0,0 mm 3,2 km/h (1 Bft) W-NW 292 0 min 1 UV-I 107 W/m 11,3 km/h (2 Bft)
19.05.2010 16:50 13,2 C 65 % 1023,6 hPa 0,0 mm 4,2 km/h (1 Bft) W 264 0 min 1 UV-I 121 W/m 14,5 km/h (3 Bft)
19.05.2010 17:00 13,3 C 64 % 1023,6 hPa 0,0 mm 3,9 km/h (1 Bft) NW 312 0 min 1 UV-I 103 W/m 14,5 km/h (3 Bft)
19.05.2010 17:10 13,2 C 64 % 1023,6 hPa 0,0 mm 2,1 km/h (1 Bft) NW 306 0 min 1 UV-I 61 W/m 9,7 km/h (2 Bft)
19.05.2010 17:20 13,1 C 65 % 1023,6 hPa 0,0 mm 2,4 km/h (1 Bft) W-NW 296 0 min 0 UV-I 58 W/m 9,7 km/h (2 Bft)
19.05.2010 17:30 13,2 C 65 % 1023,5 hPa 0,0 mm 2,4 km/h (1 Bft) W-NW 302 0 min 1 UV-I 76 W/m 11,3 km/h (2 Bft)
19.05.2010 17:40 13,2 C 64 % 1023,6 hPa 0,0 mm 2,1 km/h (1 Bft) W 268 0 min 1 UV-I 63 W/m 9,7 km/h (2 Bft)
19.05.2010 17:50 13,2 C 64 % 1023,5 hPa 0,0 mm 2,0 km/h (1 Bft) W 271 0 min 1 UV-I 75 W/m 9,7 km/h (2 Bft)
19.05.2010 18:00 13,3 C 65 % 1023,7 hPa 0,0 mm 1,3 km/h (1 Bft) W-NW 290 0 min 1 UV-I 78 W/m 6,4 km/h (2 Bft)
19.05.2010 18:10 13,3 C 65 % 1022,2 hPa 0,0 mm 2,2 km/h (1 Bft) W 279 0 min 1 UV-I 85 W/m 8,0 km/h (2 Bft)
19.05.2010 18:20 13,3 C 65 % 1023,7 hPa 0,0 mm 1,0 km/h (0 Bft) W 271 0 min 0 UV-I 51 W/m 6,4 km/h (2 Bft)
19.05.2010 18:30 13,3 C 65 % 1023,8 hPa 0,0 mm 0,9 km/h (0 Bft) W 279 0 min 0 UV-I 46 W/m 4,8 km/h (1 Bft)
19.05.2010 18:40 13,3 C 66 % 1023,5 hPa 0,0 mm 0,4 km/h (0 Bft) W 279 0 min 0 UV-I 53 W/m 4,8 km/h (1 Bft)
19.05.2010 18:50 13,3 C 65 % 1023,6 hPa 0,0 mm 1,9 km/h (1 Bft) W-SW 252 0 min 0 UV-I 40 W/m 14,5 km/h (3 Bft)
19.05.2010 19:00 13,3 C 63 % 1023,4 hPa 0,0 mm 3,2 km/h (1 Bft) W 269 0 min 0 UV-I 35 W/m 11,3 km/h (2 Bft)
19.05.2010 19:10 13,2 C 61 % 1023,6 hPa 0,0 mm 3,6 km/h (1 Bft) W-SW 249 0 min 0 UV-I 28 W/m 14,5 km/h (3 Bft)
19.05.2010 19:20 13,2 C 60 % 1023,8 hPa 0,0 mm 4,7 km/h (1 Bft) W-NW 292 0 min 0 UV-I 28 W/m 14,5 km/h (3 Bft)
19.05.2010 19:30 13,2 C 61 % 1023,7 hPa 0,0 mm 3,5 km/h (1 Bft) N 11 0 min 0 UV-I 21 W/m 11,3 km/h (2 Bft)
19.05.2010 19:40 13,2 C 60 % 1023,4 hPa 0,0 mm 4,5 km/h (1 Bft) N-NW 329 0 min 0 UV-I 16 W/m 16,1 km/h (3 Bft)
19.05.2010 19:50 13,1 C 60 % 1024,4 hPa 0,0 mm 3,1 km/h (1 Bft) W-NW 293 0 min 0 UV-I 14 W/m 14,5 km/h (3 Bft)
19.05.2010 20:00 13,1 C 61 % 1024,6 hPa 0,0 mm 2,3 km/h (1 Bft) W-NW 300 0 min 0 UV-I 7 W/m 9,7 km/h (2 Bft)
19.05.2010 20:10 12,9 C 62 % 1024,7 hPa 0,0 mm 5,2 km/h (1 Bft) W 281 0 min 0 UV-I 6 W/m 19,3 km/h (3 Bft)
19.05.2010 20:20 12,7 C 64 % 1024,7 hPa 0,0 mm 3,5 km/h (1 Bft) W 276 0 min 0 UV-I 7 W/m 17,7 km/h (3 Bft)
19.05.2010 20:30 12,5 C 64 % 1024,8 hPa 0,0 mm 3,4 km/h (1 Bft) NW 309 0 min 0 UV-I 9 W/m 20,9 km/h (4 Bft)
19.05.2010 20:40 12,4 C 65 % 1024,8 hPa 0,0 mm 2,3 km/h (1 Bft) W-NW 288 0 min 0 UV-I 12 W/m 11,3 km/h (2 Bft)
19.05.2010 20:50 12,3 C 65 % 1024,8 hPa 0,0 mm 2,3 km/h (1 Bft) W-SW 251 0 min 0 UV-I 13 W/m 9,7 km/h (2 Bft)
19.05.2010 21:00 12,1 C 64 % 1024,7 hPa 0,0 mm 2,9 km/h (1 Bft) W-SW 250 0 min 0 UV-I 5 W/m 9,7 km/h (2 Bft)
19.05.2010 21:10 12,1 C 64 % 1024,7 hPa 0,0 mm 3,3 km/h (1 Bft) W 281 0 min 0 UV-I 0 W/m 8,0 km/h (2 Bft)
19.05.2010 21:20 12,1 C 63 % 1024,7 hPa 0,0 mm 3,9 km/h (1 Bft) W 269 0 min 0 UV-I 0 W/m 14,5 km/h (3 Bft)
19.05.2010 21:30 12,1 C 64 % 1024,7 hPa 0,0 mm 1,4 km/h (1 Bft) W-NW 299 0 min 0 UV-I 0 W/m 9,7 km/h (2 Bft)
19.05.2010 21:40 12,0 C 64 % 1024,6 hPa 0,0 mm 2,1 km/h (1 Bft) W-NW 303 0 min 0 UV-I 0 W/m 11,3 km/h (2 Bft)
19.05.2010 21:50 11,9 C 64 % 1024,6 hPa 0,0 mm 1,8 km/h (1 Bft) W-NW 282 0 min 0 UV-I 0 W/m 6,4 km/h (2 Bft)
19.05.2010 22:00 11,9 C 64 % 1024,6 hPa 0,0 mm 1,7 km/h (1 Bft) NW 313 0 min 0 UV-I 0 W/m 8,0 km/h (2 Bft)
19.05.2010 22:10 11,8 C 63 % 1024,7 hPa 0,0 mm 1,7 km/h (1 Bft) W 271 0 min 0 UV-I 0 W/m 8,0 km/h (2 Bft)
19.05.2010 22:20 11,7 C 63 % 1024,7 hPa 0,0 mm 1,3 km/h (1 Bft) W 277 0 min 0 UV-I 0 W/m 6,4 km/h (2 Bft)
19.05.2010 22:30 11,7 C 64 % 1024,6 hPa 0,0 mm 2,2 km/h (1 Bft) W 277 0 min 0 UV-I 0 W/m 8,0 km/h (2 Bft)
19.05.2010 22:40 11,7 C 64 % 1024,7 hPa 0,0 mm 1,4 km/h (1 Bft) W-NW 294 0 min 0 UV-I 0 W/m 8,0 km/h (2 Bft)
19.05.2010 22:50 11,7 C 64 % 1025,3 hPa 0,0 mm 0,0 km/h (0 Bft) W-NW 292 0 min 0 UV-I 0 W/m 3,2 km/h (1 Bft)
19.05.2010 23:00 11,7 C 63 % 1025,8 hPa 0,0 mm 1,6 km/h (1 Bft) W-NW 292 0 min 0 UV-I 0 W/m 6,4 km/h (2 Bft)
19.05.2010 23:10 11,6 C 63 % 1025,4 hPa 0,0 mm 1,6 km/h (1 Bft) W 270 0 min 0 UV-I 0 W/m 6,4 km/h (2 Bft)
19.05.2010 23:20 11,6 C 63 % 1024,3 hPa 0,0 mm 1,6 km/h (1 Bft) W-NW 292 0 min 0 UV-I 0 W/m 9,7 km/h (2 Bft)
19.05.2010 23:30 11,6 C 63 % 1024,0 hPa 0,0 mm 1,6 km/h (1 Bft) W-NW 292 0 min 0 UV-I 0 W/m 8,0 km/h (2 Bft)
19.05.2010 23:40 11,6 C 63 % 1024,4 hPa 0,0 mm 0,0 km/h (0 Bft) W-NW 292 0 min 0 UV-I 0 W/m 3,2 km/h (1 Bft)
19.05.2010 23:50 11,5 C 63 % 1023,6 hPa 0,0 mm 1,6 km/h (1 Bft) W-NW 292 0 min 0 UV-I 0 W/m 8,0 km/h (2 Bft)
_ Min-Zeit 05:30 19:20 18:10 - 22:50 - - - - - 16:00
Minimum _ 7,7 C 60 % 1022,2 hPa - 0,0 km/h (0 Bft) - - - - - 3,2 km/h (1 Bft)
_ Max-Zeit 18:40 11:30 23:00 10:40 03:30 - - 00:00 12:00 12:10 20:30
Maximum _ 13,4 C 87 % 1025,8 hPa 0,3 mm 6,4 km/h
W (2 Bft)
- - 0 min 2 UV-I 243 W/m 20,9 km/h
N-NW (4 Bft)
Durchschnitt _ 10,1 C 76 % 1024,1 hPa #1,5 mm 3,5 km/h (1 Bft) W - #0 min. 1 UV-I 90 W/m 12,0 km/h (2 Bft)